Time;durP1;ratioP1;P1;durP2;ratioP2;P2;SDS_P1;SDS_P2;PMS_P1;PMS_P2;Temp;Humidity;BMP_temperature;BMP_pressure;BME280_temperature;BME280_humidity;BME280_pressure;Samples;Min_cycle;Max_cycle;Signal;HPM_P1;HPM_P2
2021/10/06 00:02:54;;;;;;;6.70;5.00;;;;;;;16.24;52.91;98474.56;235546;1199;24062;-72
2021/10/06 00:07:59;;;;;;;7.40;4.60;;;;;;;16.19;53.24;98477.91;235375;1200;25410;-73
2021/10/06 00:13:03;;;;;;;6.50;4.50;;;;;;;16.15;53.31;98487.05;234942;1201;24203;-72
2021/10/06 00:18:14;;;;;;;8.90;4.50;;;;;;;16.10;53.41;98492.98;235555;1186;24209;-72
2021/10/06 00:23:18;;;;;;;6.40;4.80;;;;;;;16.02;53.53;98498.09;235425;1200;24068;-72
2021/10/06 00:28:21;;;;;;;7.80;3.80;;;;;;;15.93;53.73;98503.34;235769;1199;24555;-72
2021/10/06 00:33:25;;;;;;;5.70;4.10;;;;;;;15.85;53.97;98503.29;235914;1197;25151;-71
2021/10/06 00:38:30;;;;;;;6.20;4.30;;;;;;;15.77;54.20;98503.84;235560;1193;22541;-72
2021/10/06 00:43:33;;;;;;;6.50;4.30;;;;;;;15.71;54.41;98506.13;235389;1200;24045;-72
2021/10/06 00:48:35;;;;;;;7.10;4.90;;;;;;;15.66;54.55;98513.71;235283;1185;24078;-72
2021/10/06 00:53:38;;;;;;;6.20;4.20;;;;;;;15.63;54.70;98510.84;235113;1200;24068;-70
2021/10/06 00:58:41;;;;;;;5.70;4.30;;;;;;;15.63;54.88;98507.84;235466;1193;25285;-72
2021/10/06 01:03:43;;;;;;;5.90;4.30;;;;;;;15.68;55.03;98509.31;235914;1200;25289;-72
2021/10/06 01:08:46;;;;;;;7.20;4.30;;;;;;;15.71;54.95;98515.70;235391;1200;22552;-72
2021/10/06 01:13:58;;;;;;;6.00;4.30;;;;;;;15.74;55.04;98519.19;235201;1193;24234;-71
2021/10/06 01:19:01;;;;;;;8.50;4.00;;;;;;;15.82;55.22;98518.67;235121;1201;24007;-70
2021/10/06 01:24:04;;;;;;;5.40;4.30;;;;;;;15.93;55.33;98511.89;235299;1201;22472;-72
2021/10/06 01:29:08;;;;;;;7.60;4.30;;;;;;;16.03;55.21;98512.11;235335;1179;24145;-72
2021/10/06 01:34:11;;;;;;;7.60;4.10;;;;;;;16.09;55.00;98510.77;235657;1195;25096;-72
2021/10/06 01:39:14;;;;;;;6.60;4.50;;;;;;;16.09;54.84;98517.04;235480;1199;24048;-72
2021/10/06 01:44:19;;;;;;;6.50;4.10;;;;;;;16.12;54.82;98514.59;235445;1199;25271;-70
2021/10/06 01:49:35;;;;;;;7.00;4.30;;;;;;;16.21;54.80;98508.10;235081;1201;22477;-72
2021/10/06 01:54:53;;;;;;;6.10;4.00;;;;;;;16.30;54.58;98504.23;235035;1197;25076;-71
2021/10/06 01:59:55;;;;;;;10.10;4.20;;;;;;;16.37;54.32;98506.20;235551;1193;22451;-72
2021/10/06 02:04:58;;;;;;;5.40;3.60;;;;;;;16.48;53.90;98506.89;235385;1200;24093;-73
2021/10/06 02:10:00;;;;;;;4.20;3.60;;;;;;;16.61;53.54;98502.45;235224;1194;22588;-72
2021/10/06 02:15:06;;;;;;;4.90;4.10;;;;;;;16.78;53.26;98491.88;235074;1201;22464;-72
2021/10/06 02:20:15;;;;;;;7.80;4.00;;;;;;;16.95;52.73;98496.15;235353;1195;25056;-70
2021/10/06 02:25:18;;;;;;;7.30;4.30;;;;;;;17.02;52.37;98498.58;235218;1200;22613;-71
2021/10/06 02:30:21;;;;;;;5.80;3.80;;;;;;;17.11;52.11;98504.34;235623;1199;22469;-72
2021/10/06 02:35:30;;;;;;;7.60;4.10;;;;;;;17.19;51.94;98503.48;235771;1199;22858;-72
2021/10/06 02:40:49;;;;;;;4.70;4.00;;;;;;;17.22;51.73;98501.73;235372;1193;23669;-71
2021/10/06 02:45:51;;;;;;;6.30;4.00;;;;;;;17.25;51.61;98497.25;235232;1194;22557;-72
2021/10/06 02:50:54;;;;;;;6.00;3.50;;;;;;;17.23;51.59;98505.55;234944;1199;25156;-75
2021/10/06 02:55:56;;;;;;;6.20;3.90;;;;;;;17.20;51.67;98519.68;235040;1193;24061;-71
2021/10/06 03:00:59;;;;;;;4.60;3.90;;;;;;;17.16;51.78;98519.17;235502;1195;24094;-72
2021/10/06 03:06:03;;;;;;;5.60;4.00;;;;;;;17.14;51.85;98512.91;235510;1200;22422;-71
2021/10/06 03:11:05;;;;;;;5.10;4.00;;;;;;;17.08;51.97;98516.92;235098;1201;25313;-72
2021/10/06 03:16:22;;;;;;;9.00;4.30;;;;;;;17.02;52.07;98520.95;235115;1201;25262;-72
2021/10/06 03:21:26;;;;;;;6.00;4.20;;;;;;;16.94;52.18;98520.34;235060;1201;23536;-70
2021/10/06 03:26:28;;;;;;;5.30;4.20;;;;;;;16.90;52.28;98523.88;234820;1200;24197;-73
2021/10/06 03:31:31;;;;;;;4.30;3.90;;;;;;;16.86;52.41;98533.56;235634;1199;22555;-73
2021/10/06 03:36:34;;;;;;;8.70;4.00;;;;;;;16.81;52.49;98545.67;235438;1200;24109;-72
2021/10/06 03:41:36;;;;;;;6.40;4.20;;;;;;;16.74;52.70;98550.96;235797;1193;25292;-70
2021/10/06 03:46:39;;;;;;;6.50;4.20;;;;;;;16.67;52.92;98557.34;235407;1200;22640;-73
2021/10/06 03:51:41;;;;;;;6.70;3.80;;;;;;;16.59;52.98;98557.63;235151;1201;24071;-72
2021/10/06 03:56:44;;;;;;;7.50;4.50;;;;;;;16.56;53.15;98561.94;235133;1200;24086;-71
2021/10/06 04:01:47;;;;;;;7.10;4.20;;;;;;;16.53;53.36;98563.30;235314;1200;22932;-72
2021/10/06 04:06:49;;;;;;;8.40;5.00;;;;;;;16.51;53.48;98566.53;235378;1193;25340;-73
2021/10/06 04:11:58;;;;;;;6.20;4.50;;;;;;;16.49;53.61;98569.54;234987;1193;24099;-72
2021/10/06 04:17:02;;;;;;;7.10;4.50;;;;;;;16.48;53.88;98577.10;235332;1199;24511;-72
2021/10/06 04:22:04;;;;;;;5.60;4.50;;;;;;;16.47;54.08;98580.09;235228;1192;24903;-72
2021/10/06 04:27:07;;;;;;;6.70;4.40;;;;;;;16.48;54.36;98582.75;235616;1199;23999;-70
2021/10/06 04:32:10;;;;;;;7.40;4.70;;;;;;;16.49;54.67;98580.98;236010;1199;25173;-73
2021/10/06 04:37:19;;;;;;;4.70;3.90;;;;;;;16.47;55.06;98585.34;236368;1193;22415;-72
2021/10/06 04:42:22;;;;;;;4.90;4.00;;;;;;;16.44;55.49;98592.70;236179;1184;24046;-73
2021/10/06 04:47:24;;;;;;;7.20;4.20;;;;;;;16.40;55.76;98600.53;235489;1199;24042;-72
2021/10/06 04:52:27;;;;;;;4.80;4.20;;;;;;;16.36;56.12;98606.88;235132;1197;24098;-72
2021/10/06 04:57:30;;;;;;;5.40;3.50;;;;;;;16.34;56.48;98616.36;235357;1200;24048;-72
2021/10/06 05:02:33;;;;;;;6.20;3.80;;;;;;;16.33;56.89;98620.12;235614;1200;24066;-70
2021/10/06 05:07:35;;;;;;;6.30;4.40;;;;;;;16.36;57.36;98624.80;235530;1197;22466;-72
2021/10/06 05:12:44;;;;;;;5.30;4.30;;;;;;;16.38;57.78;98628.03;235322;1201;24608;-72
2021/10/06 05:17:56;;;;;;;6.00;4.50;;;;;;;16.38;58.19;98629.05;235246;1187;25234;-72
2021/10/06 05:22:58;;;;;;;6.40;4.60;;;;;;;16.36;58.36;98633.84;235370;1195;24267;-72
2021/10/06 05:28:15;;;;;;;8.40;4.80;;;;;;;16.33;58.56;98635.80;235620;1195;26307;-72
2021/10/06 05:33:38;;;;;;;7.70;5.10;;;;;;;16.28;58.89;98635.00;235832;1187;24105;-72
2021/10/06 05:38:40;;;;;;;8.30;4.30;;;;;;;16.23;59.07;98637.60;235607;1195;22511;-73
2021/10/06 05:43:44;;;;;;;5.60;4.50;;;;;;;16.24;59.25;98643.52;235606;1199;24086;-72
2021/10/06 05:48:52;;;;;;;7.10;4.70;;;;;;;16.28;59.45;98648.84;235818;1193;22563;-72
2021/10/06 05:54:01;;;;;;;7.50;4.60;;;;;;;16.33;59.61;98652.77;236552;1193;22485;-71
2021/10/06 05:59:03;;;;;;;7.40;4.80;;;;;;;16.39;59.79;98656.33;237159;1197;24236;-72
2021/10/06 06:04:08;;;;;;;7.40;4.80;;;;;;;16.47;59.88;98669.28;236061;1193;26149;-72
2021/10/06 06:09:24;;;;;;;7.80;5.40;;;;;;;16.50;59.87;98676.14;236569;1199;24013;-70
2021/10/06 06:14:47;;;;;;;10.00;4.90;;;;;;;16.52;59.85;98680.98;236090;1194;22423;-70
2021/10/06 06:19:50;;;;;;;8.30;5.30;;;;;;;16.54;59.94;98688.61;236692;1199;24022;-71
2021/10/06 06:24:52;;;;;;;8.00;4.90;;;;;;;16.56;59.94;98687.87;235863;1177;24046;-71
2021/10/06 06:29:55;;;;;;;8.20;4.90;;;;;;;16.62;60.17;98692.41;236373;1193;24040;-71
2021/10/06 06:35:24;;;;;;;7.70;5.50;;;;;;;16.72;60.32;98701.17;236030;1195;24087;-70
2021/10/06 06:40:32;;;;;;;9.10;4.90;;;;;;;16.80;60.45;98704.55;235787;1199;24109;-72
2021/10/06 06:45:41;;;;;;;8.20;5.50;;;;;;;16.80;60.61;98707.66;235806;1193;25756;-72
2021/10/06 06:51:00;;;;;;;7.00;5.10;;;;;;;16.80;61.01;98713.59;235935;1199;22454;-71
2021/10/06 06:56:03;;;;;;;7.20;5.00;;;;;;;16.73;61.53;98719.75;236012;1193;24062;-70
2021/10/06 07:01:05;;;;;;;7.90;5.20;;;;;;;16.67;62.04;98731.16;235776;1192;22435;-72
2021/10/06 07:06:08;;;;;;;8.90;5.50;;;;;;;16.64;62.70;98740.12;235646;1193;22560;-72
2021/10/06 07:11:21;;;;;;;6.50;5.40;;;;;;;16.49;62.99;98743.21;235684;1193;23016;-72
2021/10/06 07:16:27;;;;;;;7.90;5.70;;;;;;;16.33;63.94;98759.84;236112;1193;22451;-72
2021/10/06 07:21:44;;;;;;;5.40;4.50;;;;;;;16.05;64.55;98770.86;235889;1199;25359;-73
2021/10/06 07:27:02;;;;;;;7.60;5.20;;;;;;;15.94;65.07;98772.80;235791;1199;22496;-71
2021/10/06 07:32:06;;;;;;;9.40;6.90;;;;;;;15.92;65.52;98773.11;235763;1193;24043;-70
2021/10/06 07:37:09;;;;;;;8.20;6.40;;;;;;;15.86;65.84;98771.24;235684;1193;22870;-71
2021/10/06 07:42:12;;;;;;;10.10;6.90;;;;;;;15.86;65.86;98775.63;235705;1199;22562;-71
2021/10/06 07:47:14;;;;;;;7.00;5.80;;;;;;;15.89;66.02;98775.63;235759;1193;25578;-72
2021/10/06 07:52:17;;;;;;;7.60;6.20;;;;;;;15.94;66.01;98775.73;236081;1179;22446;-71
2021/10/06 07:57:19;;;;;;;9.40;7.70;;;;;;;16.01;66.33;98782.88;235906;1199;22448;-72
2021/10/06 08:02:23;;;;;;;12.60;8.70;;;;;;;16.01;66.40;98796.64;236000;1187;24046;-71
2021/10/06 08:07:26;;;;;;;8.40;7.30;;;;;;;15.98;66.61;98808.18;235772;1199;25058;-70
2021/10/06 08:12:29;;;;;;;8.90;6.80;;;;;;;15.94;66.72;98812.56;236000;1199;22520;-69
2021/10/06 08:17:32;;;;;;;7.90;5.80;;;;;;;15.96;66.86;98813.92;236292;1199;22437;-70
2021/10/06 08:22:34;;;;;;;8.00;7.10;;;;;;;15.99;66.99;98820.88;235952;1199;25485;-71
2021/10/06 08:27:37;;;;;;;10.30;6.40;;;;;;;16.03;67.20;98825.12;236051;1199;24076;-70
2021/10/06 08:32:43;;;;;;;8.00;7.20;;;;;;;16.03;67.28;98822.58;236015;1199;25144;-70
2021/10/06 08:37:46;;;;;;;8.50;5.70;;;;;;;16.00;67.34;98829.88;235512;1195;22440;-71
2021/10/06 08:42:49;;;;;;;12.30;7.30;;;;;;;16.00;67.86;98833.18;235586;1199;26383;-72
2021/10/06 08:47:52;;;;;;;13.30;10.50;;;;;;;16.03;68.33;98842.33;236072;1199;24170;-70
2021/10/06 08:52:54;;;;;;;15.30;10.50;;;;;;;16.03;68.75;98840.51;236630;1193;25353;-71
2021/10/06 08:58:07;;;;;;;14.40;8.70;;;;;;;16.00;68.85;98841.18;236124;1193;24062;-70
2021/10/06 09:03:10;;;;;;;12.60;8.20;;;;;;;15.91;69.05;98842.38;236311;1193;22441;-72
2021/10/06 09:08:13;;;;;;;11.20;8.70;;;;;;;15.85;69.35;98842.69;236219;1199;22571;-71
2021/10/06 09:13:15;;;;;;;10.90;8.90;;;;;;;15.77;69.69;98845.27;236205;1193;22449;-70
2021/10/06 09:18:34;;;;;;;9.10;7.40;;;;;;;15.69;70.18;98855.67;235778;1193;24057;-71
2021/10/06 09:23:39;;;;;;;9.70;8.10;;;;;;;15.57;70.45;98857.19;235874;1193;24141;-71
2021/10/06 09:28:46;;;;;;;13.30;10.20;;;;;;;15.48;71.02;98860.98;235613;1193;24060;-73
2021/10/06 09:33:50;;;;;;;12.10;10.30;;;;;;;15.37;71.45;98861.88;235687;1193;22468;-75
2021/10/06 09:38:54;;;;;;;11.60;9.00;;;;;;;15.31;72.05;98866.77;235710;1187;25388;-72
2021/10/06 09:44:17;;;;;;;11.70;9.40;;;;;;;15.36;72.60;98868.48;235764;1193;24192;-75
2021/10/06 09:49:34;;;;;;;11.80;9.80;;;;;;;15.38;72.83;98870.33;236065;1199;25128;-73
2021/10/06 09:54:36;;;;;;;14.10;10.00;;;;;;;15.42;73.10;98879.52;236197;1200;22446;-75
2021/10/06 09:59:39;;;;;;;14.90;9.60;;;;;;;15.49;73.04;98883.91;235759;1177;24057;-74
2021/10/06 10:04:42;;;;;;;11.70;9.90;;;;;;;15.45;72.82;98881.51;235702;1199;22549;-74
2021/10/06 10:09:57;;;;;;;12.90;10.40;;;;;;;15.41;72.92;98884.27;235040;1197;25212;-73
2021/10/06 10:15:12;;;;;;;12.00;9.00;;;;;;;15.33;72.92;98890.80;235732;1193;25144;-74
2021/10/06 10:20:17;;;;;;;9.30;7.80;;;;;;;15.18;72.95;98896.36;236528;1193;24811;-74
2021/10/06 10:25:25;;;;;;;11.00;9.00;;;;;;;15.15;73.23;98904.88;236113;1193;25302;-73
2021/10/06 10:30:32;;;;;;;15.00;10.00;;;;;;;15.11;73.60;98907.98;236213;1199;22445;-75
2021/10/06 10:35:42;;;;;;;13.30;9.90;;;;;;;15.02;73.93;98909.97;236051;1193;24036;-75
2021/10/06 10:40:50;;;;;;;13.80;10.10;;;;;;;14.96;74.39;98908.04;235916;1193;24161;-72
2021/10/06 10:46:11;;;;;;;12.80;9.50;;;;;;;14.94;74.99;98907.82;236178;1193;25134;-75
2021/10/06 10:51:14;;;;;;;13.80;10.30;;;;;;;14.95;75.34;98907.10;235942;1193;22412;-72
2021/10/06 10:56:44;;;;;;;12.50;9.30;;;;;;;14.96;75.59;98908.59;235840;1193;24047;-76
2021/10/06 11:01:52;;;;;;;15.70;11.30;;;;;;;14.72;75.41;98910.42;235787;1197;25354;-72
2021/10/06 11:07:18;;;;;;;17.10;10.70;;;;;;;14.64;76.34;98909.19;236109;1199;25695;-74
2021/10/06 11:12:34;;;;;;;11.80;8.90;;;;;;;14.64;76.57;98907.80;236080;1199;22563;-71
2021/10/06 11:18:07;;;;;;;13.30;9.80;;;;;;;14.60;76.73;98905.88;235794;1199;24063;-70
2021/10/06 11:23:31;;;;;;;14.70;10.30;;;;;;;14.61;77.20;98907.44;235911;1177;24073;-70
2021/10/06 11:28:42;;;;;;;13.80;10.10;;;;;;;14.63;77.38;98897.40;235775;1196;22426;-70
2021/10/06 11:33:45;;;;;;;13.80;11.20;;;;;;;14.73;78.14;98893.64;235585;1193;24641;-71
2021/10/06 11:39:15;;;;;;;17.70;12.50;;;;;;;14.84;78.17;98899.36;235636;1193;22451;-71
2021/10/06 11:44:37;;;;;;;16.00;12.50;;;;;;;14.88;78.07;98901.39;235652;1193;25113;-72
2021/10/06 11:49:52;;;;;;;13.20;10.60;;;;;;;14.91;78.24;98902.27;235960;1193;24060;-69
2021/10/06 11:54:55;;;;;;;16.90;12.70;;;;;;;14.83;77.91;98906.94;236393;1192;22473;-70
2021/10/06 11:59:58;;;;;;;14.00;11.20;;;;;;;14.82;78.43;98907.79;236372;1192;22460;-69
2021/10/06 12:05:04;;;;;;;11.90;9.80;;;;;;;14.86;78.72;98908.53;233839;1199;24046;-70
2021/10/06 12:10:26;;;;;;;12.00;9.20;;;;;;;14.82;78.26;98911.56;233957;1198;24072;-71
2021/10/06 12:15:31;;;;;;;11.00;8.20;;;;;;;14.66;78.23;98906.17;235590;1199;22459;-71
2021/10/06 12:20:42;;;;;;;11.90;9.90;;;;;;;14.49;78.20;98906.98;235914;1193;24361;-70
2021/10/06 12:25:55;;;;;;;14.60;9.80;;;;;;;14.42;78.79;98908.79;235593;1193;24085;-71
2021/10/06 12:30:58;;;;;;;11.60;9.20;;;;;;;14.41;79.35;98913.77;235840;1193;22443;-69
2021/10/06 12:36:04;;;;;;;13.90;9.40;;;;;;;14.34;79.04;98918.42;235846;1193;26228;-70
2021/10/06 12:41:12;;;;;;;13.20;9.70;;;;;;;14.27;79.30;98916.67;235634;1199;22468;-70
2021/10/06 12:46:21;;;;;;;14.80;10.50;;;;;;;14.30;79.97;98915.27;235050;1196;25259;-69
2021/10/06 12:51:29;;;;;;;16.80;11.60;;;;;;;14.39;80.34;98920.41;234231;1199;22429;-70
2021/10/06 12:56:34;;;;;;;14.60;10.30;;;;;;;14.45;80.32;98920.17;233875;1192;22434;-70
2021/10/06 13:01:39;;;;;;;14.10;10.60;;;;;;;14.40;79.85;98925.07;234089;1200;25226;-69
2021/10/06 13:06:44;;;;;;;19.00;12.40;;;;;;;14.29;79.95;98926.48;233863;1185;24085;-68
2021/10/06 13:11:49;;;;;;;16.50;12.30;;;;;;;14.33;80.86;98926.61;237007;1191;25483;-72
2021/10/06 13:16:53;;;;;;;16.50;12.40;;;;;;;14.43;81.13;98930.00;236736;1199;24062;-71
2021/10/06 13:21:58;;;;;;;17.90;11.90;;;;;;;14.52;81.16;98932.13;235151;1193;22469;-71
2021/10/06 13:27:00;;;;;;;16.30;12.30;;;;;;;14.56;81.03;98932.80;235653;1193;22485;-70
2021/10/06 13:32:05;;;;;;;14.60;12.20;;;;;;;14.59;81.23;98937.13;235662;1199;22585;-69
2021/10/06 13:37:09;;;;;;;18.80;13.40;;;;;;;14.63;81.30;98941.78;234360;1199;22447;-74
2021/10/06 13:42:13;;;;;;;16.50;12.30;;;;;;;14.59;81.07;98941.89;235763;1197;24139;-70
2021/10/06 13:47:16;;;;;;;19.50;15.40;;;;;;;14.49;81.35;98946.49;235853;1199;22478;-71
2021/10/06 13:52:21;;;;;;;22.60;16.10;;;;;;;14.48;81.58;98951.11;235930;1192;24075;-70
2021/10/06 13:57:24;;;;;;;22.10;15.00;;;;;;;14.45;81.61;98950.11;235980;1199;22452;-71
2021/10/06 14:02:29;;;;;;;20.30;15.90;;;;;;;14.39;81.54;98949.39;236482;1199;22440;-71
2021/10/06 14:07:32;;;;;;;19.50;14.40;;;;;;;14.30;81.32;98957.45;236884;1199;22463;-72
2021/10/06 14:12:35;;;;;;;12.40;10.40;;;;;;;14.24;81.66;98960.84;236212;1196;24081;-73
2021/10/06 14:17:39;;;;;;;14.30;12.80;;;;;;;14.09;81.55;98964.48;235967;1192;25055;-72
2021/10/06 14:22:43;;;;;;;16.40;13.30;;;;;;;13.99;81.77;98971.17;235881;1199;24017;-72
2021/10/06 14:27:49;;;;;;;15.40;12.60;;;;;;;13.97;82.19;98973.28;235938;1193;24585;-75
2021/10/06 14:32:52;;;;;;;16.60;13.30;;;;;;;13.94;82.38;98972.20;235682;1199;22477;-74
2021/10/06 14:37:54;;;;;;;18.40;14.60;;;;;;;13.96;82.86;98974.00;235415;1194;25325;-72
2021/10/06 14:43:02;;;;;;;16.30;13.80;;;;;;;13.98;82.88;98977.23;235458;1200;22742;-73
2021/10/06 14:48:04;;;;;;;20.50;16.20;;;;;;;13.96;82.90;98981.48;235801;1199;25015;-71
2021/10/06 14:53:08;;;;;;;16.50;13.90;;;;;;;14.00;83.34;98981.66;235559;1199;24175;-71
2021/10/06 14:58:10;;;;;;;18.70;15.40;;;;;;;14.03;83.36;98979.36;236076;1196;24078;-74
2021/10/06 15:03:15;;;;;;;20.10;16.50;;;;;;;14.05;83.54;98980.23;235861;1199;24076;-74
2021/10/06 15:08:18;;;;;;;21.30;17.10;;;;;;;14.11;84.22;98983.88;236031;1199;23490;-71
2021/10/06 15:13:21;;;;;;;20.70;18.20;;;;;;;14.21;84.65;98986.13;235636;1195;24854;-73
2021/10/06 15:18:24;;;;;;;31.70;25.60;;;;;;;14.24;84.39;98983.13;235983;1199;25214;-73
2021/10/06 15:23:35;;;;;;;34.00;27.80;;;;;;;14.18;83.92;98985.28;235934;1199;24053;-73
2021/10/06 15:28:41;;;;;;;41.40;30.60;;;;;;;14.15;84.20;98987.38;235647;1193;22500;-74
2021/10/06 15:33:44;;;;;;;42.60;31.30;;;;;;;14.14;84.25;98988.86;235580;1201;24019;-74
2021/10/06 15:38:46;;;;;;;43.40;31.70;;;;;;;14.15;84.22;98994.89;235618;1193;22467;-72
2021/10/06 15:43:50;;;;;;;44.70;32.60;;;;;;;14.14;84.58;98996.69;235179;1201;22456;-73
2021/10/06 15:48:54;;;;;;;48.00;34.60;;;;;;;14.14;84.72;98997.64;235480;1200;23088;-74
2021/10/06 15:53:57;;;;;;;53.90;37.30;;;;;;;14.20;85.51;99000.04;235369;1196;24174;-72
2021/10/06 15:59:00;;;;;;;51.00;36.00;;;;;;;14.15;84.46;99001.89;235370;1193;24047;-73
2021/10/06 16:04:04;;;;;;;59.10;38.80;;;;;;;14.05;84.53;99006.00;235384;1200;26290;-72
2021/10/06 16:09:09;;;;;;;55.10;38.60;;;;;;;14.05;85.04;99013.32;235435;1201;22444;-71
2021/10/06 16:14:12;;;;;;;69.50;45.40;;;;;;;14.01;84.56;99022.89;235402;1194;24656;-72
2021/10/06 16:19:16;;;;;;;60.70;41.60;;;;;;;13.94;84.78;99022.79;235202;1201;23944;-73
2021/10/06 16:24:20;;;;;;;63.20;44.40;;;;;;;13.80;84.24;99023.20;235361;1194;24147;-72
2021/10/06 16:29:25;;;;;;;86.30;51.90;;;;;;;13.74;84.41;99034.85;235219;1200;24143;-71
2021/10/06 16:34:28;;;;;;;92.80;55.20;;;;;;;13.73;84.85;99038.17;235294;1199;24127;-74
2021/10/06 16:39:30;;;;;;;97.00;60.60;;;;;;;13.74;85.07;99037.55;235432;1200;24588;-71
2021/10/06 16:44:33;;;;;;;95.50;60.30;;;;;;;13.77;85.15;99046.71;235653;1198;22419;-73
2021/10/06 16:49:36;;;;;;;96.50;61.50;;;;;;;13.80;85.24;99047.39;235436;1200;25203;-72
2021/10/06 16:54:39;;;;;;;77.10;54.20;;;;;;;13.83;85.34;99052.48;235424;1196;22441;-74
2021/10/06 16:59:42;;;;;;;89.90;55.70;;;;;;;13.84;85.08;99055.86;235508;1196;22432;-74
2021/10/06 17:04:58;;;;;;;84.40;55.00;;;;;;;13.87;85.40;99062.16;235648;1201;24076;-74
2021/10/06 17:10:09;;;;;;;72.90;50.30;;;;;;;13.88;85.17;99073.38;235613;1200;22476;-74
2021/10/06 17:15:12;;;;;;;57.70;44.20;;;;;;;13.73;84.73;99081.82;235587;1185;24013;-71
2021/10/06 17:20:15;;;;;;;44.00;34.80;;;;;;;13.49;84.18;99082.27;235524;1201;24071;-73
2021/10/06 17:25:19;;;;;;;44.00;33.50;;;;;;;13.27;84.45;99089.56;235428;1193;25194;-73
2021/10/06 17:30:23;;;;;;;44.70;34.60;;;;;;;13.05;84.42;99093.13;235617;1199;25284;-74
2021/10/06 17:35:29;;;;;;;42.50;32.70;;;;;;;12.89;84.69;99089.59;235479;1193;22517;-72
2021/10/06 17:40:33;;;;;;;37.30;30.10;;;;;;;12.75;84.81;99098.48;236229;1199;22483;-72
2021/10/06 17:45:37;;;;;;;35.10;29.20;;;;;;;12.62;84.92;99100.24;236956;1199;22467;-72
2021/10/06 17:50:40;;;;;;;30.70;23.90;;;;;;;12.57;85.00;99098.84;236015;1199;22468;-74
2021/10/06 17:55:46;;;;;;;35.80;27.40;;;;;;;12.50;84.95;99105.23;236117;1199;22424;-73
2021/10/06 18:00:49;;;;;;;39.90;29.90;;;;;;;12.50;85.30;99100.18;235619;1200;22438;-74
2021/10/06 18:05:51;;;;;;;43.30;31.90;;;;;;;12.53;85.39;99100.26;236494;1193;24047;-75
2021/10/06 18:10:56;;;;;;;44.10;32.20;;;;;;;12.50;85.39;99095.98;235974;1199;24019;-74
2021/10/06 18:16:00;;;;;;;43.30;30.30;;;;;;;12.47;85.49;99101.09;236041;1199;24181;-74
2021/10/06 18:21:02;;;;;;;54.90;33.20;;;;;;;12.41;85.44;99100.42;236165;1184;24027;-74
2021/10/06 18:26:06;;;;;;;54.60;34.40;;;;;;;12.38;85.59;99108.53;236072;1191;24064;-73
2021/10/06 18:31:09;;;;;;;51.90;32.60;;;;;;;12.32;85.78;99114.09;235373;1200;22572;-74
2021/10/06 18:36:14;;;;;;;52.70;33.20;;;;;;;12.28;85.91;99118.13;235774;1200;22601;-75
2021/10/06 18:41:16;;;;;;;57.10;35.20;;;;;;;12.28;86.16;99119.91;235818;1200;22448;-73
2021/10/06 18:46:19;;;;;;;53.70;32.70;;;;;;;12.30;86.15;99123.42;235873;1200;24057;-73
2021/10/06 18:51:21;;;;;;;50.40;31.90;;;;;;;12.30;86.30;99123.96;235633;1194;24930;-73
2021/10/06 18:56:25;;;;;;;57.10;35.60;;;;;;;12.29;86.33;99126.60;235337;1200;24202;-74
2021/10/06 19:01:31;;;;;;;56.00;34.30;;;;;;;12.31;86.48;99129.22;235406;1201;25169;-73
2021/10/06 19:06:34;;;;;;;56.70;35.00;;;;;;;12.33;86.38;99138.10;235344;1197;22462;-74
2021/10/06 19:11:37;;;;;;;52.60;33.80;;;;;;;12.31;86.38;99145.87;235498;1201;24116;-73
2021/10/06 19:16:42;;;;;;;54.60;33.90;;;;;;;12.29;86.61;99152.92;235194;1201;24806;-73
2021/10/06 19:21:45;;;;;;;57.60;33.30;;;;;;;12.29;86.71;99162.33;235519;1193;24080;-73
2021/10/06 19:26:47;;;;;;;60.30;36.00;;;;;;;12.25;86.69;99162.33;235293;1195;24079;-71
2021/10/06 19:32:00;;;;;;;56.10;36.10;;;;;;;12.21;86.77;99160.95;235446;1194;24055;-74
2021/10/06 19:37:06;;;;;;;64.30;38.30;;;;;;;12.18;86.95;99162.05;235208;1201;24070;-72
2021/10/06 19:42:12;;;;;;;70.10;42.50;;;;;;;12.16;87.06;99162.77;235242;1201;24087;-73
2021/10/06 19:47:14;;;;;;;73.20;42.60;;;;;;;12.16;87.06;99164.44;235304;1197;22432;-72
2021/10/06 19:52:17;;;;;;;69.90;43.80;;;;;;;12.20;87.34;99162.52;235173;1201;24040;-73
2021/10/06 19:57:20;;;;;;;78.30;44.00;;;;;;;12.26;87.78;99165.01;235724;1193;24041;-73
2021/10/06 20:02:22;;;;;;;69.80;39.70;;;;;;;12.35;87.61;99171.75;236103;1199;25189;-71
2021/10/06 20:07:27;;;;;;;71.90;41.30;;;;;;;12.32;87.20;99173.67;236010;1193;24047;-70
2021/10/06 20:12:30;;;;;;;75.50;40.90;;;;;;;12.29;87.19;99174.24;235895;1199;22488;-71
2021/10/06 20:17:33;;;;;;;78.50;43.10;;;;;;;12.29;87.31;99168.88;235931;1198;24041;-73
2021/10/06 20:22:36;;;;;;;81.70;42.40;;;;;;;12.24;87.18;99169.66;236069;1199;24135;-73
2021/10/06 20:27:39;;;;;;;73.70;40.20;;;;;;;12.22;87.32;99170.65;235901;1193;22548;-72
2021/10/06 20:32:42;;;;;;;82.00;43.90;;;;;;;12.17;87.12;99174.90;235259;1195;24090;-73
2021/10/06 20:38:00;;;;;;;77.10;40.10;;;;;;;12.13;87.13;99178.19;235006;1201;22600;-71
2021/10/06 20:43:06;;;;;;;81.30;41.90;;;;;;;12.07;86.95;99180.13;235436;1195;25139;-72
2021/10/06 20:48:09;;;;;;;83.60;38.60;;;;;;;12.03;87.10;99186.73;235218;1193;24086;-72
2021/10/06 20:53:11;;;;;;;92.90;46.60;;;;;;;11.98;87.14;99187.69;234969;1194;26323;-72
2021/10/06 20:58:14;;;;;;;84.80;41.30;;;;;;;11.96;87.29;99184.08;235722;1199;22429;-73
2021/10/06 21:03:18;;;;;;;87.70;42.00;;;;;;;11.94;87.24;99183.40;236246;1199;25164;-71
2021/10/06 21:08:20;;;;;;;82.70;41.30;;;;;;;11.89;87.24;99185.70;236102;1199;24126;-71
2021/10/06 21:13:24;;;;;;;89.40;40.00;;;;;;;11.84;87.23;99189.08;236197;1199;25197;-72
2021/10/06 21:18:27;;;;;;;85.70;39.00;;;;;;;11.80;87.32;99197.11;236236;1199;24163;-71
2021/10/06 21:23:30;;;;;;;95.20;42.20;;;;;;;11.76;87.31;99200.77;235719;1199;24123;-71
2021/10/06 21:28:37;;;;;;;85.90;39.90;;;;;;;11.70;87.38;99203.98;235910;1199;24195;-71
2021/10/06 21:33:40;;;;;;;87.80;38.70;;;;;;;11.67;87.57;99205.24;235546;1201;25108;-72
2021/10/06 21:38:43;;;;;;;76.10;36.10;;;;;;;11.65;87.51;99206.40;235233;1201;24049;-71
2021/10/06 21:43:46;;;;;;;86.80;38.50;;;;;;;11.62;87.61;99208.43;235189;1201;24095;-71
2021/10/06 21:48:49;;;;;;;84.00;38.30;;;;;;;11.58;87.76;99213.23;235043;1195;24080;-70
2021/10/06 21:53:51;;;;;;;86.10;38.50;;;;;;;11.59;87.87;99213.45;235311;1195;24055;-72
2021/10/06 21:58:53;;;;;;;68.80;20.90;;;;;;;11.59;88.15;99215.86;235557;1199;24365;-72
2021/10/06 22:03:56;;;;;;;62.40;18.10;;;;;;;11.56;88.03;99216.02;235997;1199;24055;-72
2021/10/06 22:08:59;;;;;;;64.00;18.40;;;;;;;11.57;88.37;99220.66;236077;1199;22449;-72
2021/10/06 22:14:02;;;;;;;71.20;19.10;;;;;;;11.55;88.38;99222.17;235856;1199;24558;-71
2021/10/06 22:19:06;;;;;;;79.50;18.90;;;;;;;11.54;88.44;99229.33;235621;1193;24174;-72
2021/10/06 22:24:10;;;;;;;82.00;19.50;;;;;;;11.59;88.55;99228.67;235951;1199;24290;-71
2021/10/06 22:29:12;;;;;;;84.10;19.30;;;;;;;11.66;88.82;99229.95;235497;1193;22428;-71
2021/10/06 22:34:16;;;;;;;80.40;18.90;;;;;;;11.72;88.75;99230.48;235168;1201;24072;-72
2021/10/06 22:39:19;;;;;;;72.00;18.50;;;;;;;11.81;88.98;99229.27;235259;1198;24066;-71
2021/10/06 22:44:22;;;;;;;64.50;14.60;;;;;;;11.84;88.57;99231.70;235188;1201;22425;-72
2021/10/06 22:49:25;;;;;;;69.50;16.00;;;;;;;11.76;88.34;99234.36;235072;1201;25224;-72
2021/10/06 22:54:27;;;;;;;65.90;14.70;;;;;;;11.72;88.35;99233.77;234909;1195;22550;-72
2021/10/06 22:59:37;;;;;;;47.60;11.70;;;;;;;11.70;88.54;99233.67;235733;1184;24155;-72
2021/10/06 23:04:51;;;;;;;54.80;13.20;;;;;;;11.68;88.52;99236.00;235862;1199;24194;-71
2021/10/06 23:09:54;;;;;;;45.60;11.40;;;;;;;11.66;88.73;99239.04;235848;1199;24158;-71
2021/10/06 23:14:58;;;;;;;47.40;11.40;;;;;;;11.64;88.83;99241.08;236267;1198;24814;-71
2021/10/06 23:20:01;;;;;;;53.10;13.40;;;;;;;11.59;88.87;99243.92;236146;1199;24238;-72
2021/10/06 23:25:04;;;;;;;57.60;14.30;;;;;;;11.59;89.05;99245.59;236062;1199;24216;-71